Time;durP1;ratioP1;P1;durP2;ratioP2;P2;SDS_P1;SDS_P2;PMS_P1;PMS_P2;Temp;Humidity;BMP_temperature;BMP_pressure;BME280_temperature;BME280_humidity;BME280_pressure;Samples;Min_cycle;Max_cycle;Signal;HPM_P1;HPM_P2
2023/07/09 00:00:22;;;;;;;9.17;4.00;;;22.70;99.90;;;;;;5047821;28;20721;-68
2023/07/09 00:02:48;;;;;;;7.30;3.80;;;22.50;99.90;;;;;;5048137;28;20189;-68
2023/07/09 00:05:16;;;;;;;8.83;4.73;;;22.50;99.90;;;;;;5049503;28;20188;-68
2023/07/09 00:07:44;;;;;;;6.10;3.60;;;22.60;99.90;;;;;;5048261;28;20883;-68
2023/07/09 00:10:15;;;;;;;6.73;3.63;;;22.50;99.90;;;;;;5049378;28;20437;-70
2023/07/09 00:12:40;;;;;;;10.53;3.70;;;22.60;99.90;;;;;;5047832;28;20440;-69
2023/07/09 00:15:09;;;;;;;7.30;3.90;;;22.50;99.90;;;;;;5049696;28;20840;-69
2023/07/09 00:17:35;;;;;;;7.27;4.10;;;22.50;99.90;;;;;;5047984;28;20704;-69
2023/07/09 00:20:04;;;;;;;5.83;4.07;;;22.40;99.90;;;;;;5049239;28;20436;-69
2023/07/09 00:22:30;;;;;;;5.23;3.00;;;22.40;99.90;;;;;;5049474;28;20213;-69
2023/07/09 00:24:56;;;;;;;4.50;3.90;;;22.30;99.90;;;;;;5049127;28;20427;-69
2023/07/09 00:27:25;;;;;;;7.80;3.73;;;22.20;99.90;;;;;;5049121;28;20185;-69
2023/07/09 00:29:52;;;;;;;7.27;4.17;;;22.20;99.90;;;;;;5047508;28;21026;-69
2023/07/09 00:32:20;;;;;;;6.63;3.33;;;22.10;99.90;;;;;;5048785;28;20442;-69
2023/07/09 00:34:51;;;;;;;8.30;3.70;;;22.10;99.90;;;;;;5048869;28;21007;-70
2023/07/09 00:37:25;;;;;;;4.37;3.20;;;22.00;99.90;;;;;;5048972;28;20411;-69
2023/07/09 00:39:51;;;;;;;9.43;3.53;;;22.00;99.90;;;;;;5047434;28;20432;-69
2023/07/09 00:42:19;;;;;;;5.30;4.00;;;21.90;99.90;;;;;;5048757;28;20947;-69
2023/07/09 00:44:47;;;;;;;6.50;3.40;;;21.80;99.90;;;;;;5048939;28;20186;-69
2023/07/09 00:47:23;;;;;;;5.77;3.40;;;21.70;99.90;;;;;;5049449;28;20831;-69
2023/07/09 00:49:52;;;;;;;8.57;3.33;;;21.60;99.90;;;;;;5048762;28;20850;-69
2023/07/09 00:52:35;;;;;;;4.90;3.37;;;21.50;99.90;;;;;;5046976;28;20449;-68
2023/07/09 00:55:05;;;;;;;8.53;3.97;;;21.40;99.90;;;;;;5048165;28;20450;-69
2023/07/09 00:57:31;;;;;;;7.93;3.77;;;21.40;99.90;;;;;;5048591;28;20402;-67
2023/07/09 01:00:07;;;;;;;7.43;4.50;;;21.40;99.90;;;;;;5047060;28;20798;-68
2023/07/09 01:02:35;;;;;;;8.40;4.00;;;21.30;99.90;;;;;;5031679;28;20211;-67
2023/07/09 01:05:02;;;;;;;7.27;4.10;;;21.20;99.90;;;;;;5048936;28;20518;-67
2023/07/09 01:07:29;;;;;;;6.60;3.90;;;21.20;99.90;;;;;;5048344;28;20421;-68
2023/07/09 01:09:55;;;;;;;6.10;4.07;;;21.10;99.90;;;;;;5048522;28;20480;-68
2023/07/09 01:12:22;;;;;;;8.50;4.67;;;21.20;99.90;;;;;;5048323;28;20868;-66
2023/07/09 01:14:52;;;;;;;6.77;3.73;;;21.10;99.90;;;;;;5048378;28;20499;-67
2023/07/09 01:17:18;;;;;;;6.97;3.70;;;21.10;99.90;;;;;;5048389;28;20467;-67
2023/07/09 01:19:49;;;;;;;7.67;4.40;;;20.90;99.90;;;;;;5048235;28;20422;-67
2023/07/09 01:22:18;;;;;;;8.10;4.17;;;20.80;99.90;;;;;;5048230;28;20434;-68
2023/07/09 01:24:49;;;;;;;5.53;3.50;;;20.80;99.90;;;;;;5048584;28;20880;-67
2023/07/09 01:27:15;;;;;;;5.47;4.00;;;20.90;99.90;;;;;;5047295;28;20927;-67
2023/07/09 01:29:42;;;;;;;4.47;3.50;;;21.00;99.90;;;;;;5048114;28;20507;-68
2023/07/09 01:32:09;;;;;;;9.50;3.87;;;21.10;99.90;;;;;;5048264;28;20990;-68
2023/07/09 01:34:35;;;;;;;7.50;4.20;;;21.10;99.90;;;;;;5048109;28;20541;-68
2023/07/09 01:37:00;;;;;;;8.30;4.20;;;21.20;99.90;;;;;;5047006;28;20514;-68
2023/07/09 01:39:28;;;;;;;12.03;4.10;;;21.10;99.90;;;;;;5048321;28;20187;-68
2023/07/09 01:41:54;;;;;;;5.87;3.70;;;21.00;99.90;;;;;;5048408;28;20204;-68
2023/07/09 01:44:19;;;;;;;6.73;3.40;;;20.90;99.90;;;;;;5048872;28;20995;-67
2023/07/09 01:46:45;;;;;;;4.03;3.00;;;20.90;99.90;;;;;;5047369;28;20417;-68
2023/07/09 01:49:11;;;;;;;6.40;4.20;;;20.90;99.90;;;;;;5048650;28;20242;-68
2023/07/09 01:51:38;;;;;;;5.07;4.00;;;20.80;99.90;;;;;;5048388;28;20434;-68
2023/07/09 01:54:04;;;;;;;5.40;3.87;;;20.70;99.90;;;;;;5048391;28;20214;-68
2023/07/09 01:56:30;;;;;;;10.20;3.63;;;20.60;99.90;;;;;;5047004;28;20433;-68
2023/07/09 01:59:00;;;;;;;9.13;4.00;;;20.50;99.90;;;;;;5047084;28;20445;-67
2023/07/09 02:01:30;;;;;;;4.70;3.90;;;20.50;99.90;;;;;;5046753;28;20210;-68
2023/07/09 02:03:55;;;;;;;7.03;3.73;;;20.50;99.90;;;;;;5047864;28;20957;-68
2023/07/09 02:06:24;;;;;;;7.40;3.87;;;20.50;99.90;;;;;;5047188;28;20429;-69
2023/07/09 02:08:50;;;;;;;7.73;3.97;;;20.40;99.90;;;;;;5051753;28;20187;-68
2023/07/09 02:11:16;;;;;;;5.53;4.13;;;20.40;99.90;;;;;;5051536;28;20447;-68
2023/07/09 02:13:41;;;;;;;9.47;4.83;;;20.30;99.90;;;;;;5051546;28;20420;-68
2023/07/09 02:16:07;;;;;;;7.60;3.43;;;20.40;99.90;;;;;;5051493;28;20849;-68
2023/07/09 02:18:34;;;;;;;9.30;4.20;;;20.30;99.90;;;;;;5051540;28;20565;-68
2023/07/09 02:21:00;;;;;;;5.73;3.70;;;20.30;99.90;;;;;;5051390;28;20242;-67
2023/07/09 02:23:29;;;;;;;6.90;4.17;;;20.30;99.90;;;;;;5051507;28;20476;-68
2023/07/09 02:25:54;;;;;;;8.43;4.00;;;20.20;99.90;;;;;;5051355;28;20191;-68
2023/07/09 02:28:20;;;;;;;8.00;4.13;;;20.20;99.90;;;;;;5051229;28;20430;-68
2023/07/09 02:30:46;;;;;;;8.50;3.53;;;20.20;99.90;;;;;;5051281;28;20204;-68
2023/07/09 02:33:11;;;;;;;6.87;3.83;;;20.20;99.90;;;;;;5051129;28;20646;-68
2023/07/09 02:35:37;;;;;;;6.40;4.00;;;20.20;99.90;;;;;;5051184;28;20218;-68
2023/07/09 02:38:03;;;;;;;6.80;3.93;;;20.20;99.90;;;;;;5051219;28;20228;-68
2023/07/09 02:40:29;;;;;;;6.90;4.23;;;20.20;99.90;;;;;;5051114;28;20187;-68
2023/07/09 02:42:54;;;;;;;9.77;4.97;;;20.20;99.90;;;;;;5050952;28;20418;-68
2023/07/09 02:45:21;;;;;;;7.90;4.17;;;20.10;99.90;;;;;;5051154;28;20572;-68
2023/07/09 02:47:47;;;;;;;7.50;4.30;;;20.20;99.90;;;;;;5050872;28;20215;-68
2023/07/09 02:50:12;;;;;;;7.43;3.83;;;20.20;99.90;;;;;;5051206;28;20441;-68
2023/07/09 02:52:38;;;;;;;10.73;5.00;;;20.20;99.90;;;;;;5049533;28;20442;-68
2023/07/09 02:55:04;;;;;;;6.23;4.20;;;20.20;99.90;;;;;;5051028;28;20214;-68
2023/07/09 02:57:30;;;;;;;8.97;4.00;;;20.20;99.90;;;;;;5049361;28;20253;-68
2023/07/09 02:59:55;;;;;;;8.87;3.50;;;20.10;99.90;;;;;;5050784;28;20437;-68
2023/07/09 03:02:21;;;;;;;7.97;4.10;;;20.10;99.90;;;;;;5050683;28;20195;-68
2023/07/09 03:04:46;;;;;;;6.63;3.63;;;20.00;99.90;;;;;;5050869;28;20192;-68
2023/07/09 03:07:12;;;;;;;8.83;4.57;;;20.00;99.90;;;;;;5049302;28;20233;-68
2023/07/09 03:09:38;;;;;;;9.80;4.70;;;19.90;99.90;;;;;;5049053;28;20191;-67
2023/07/09 03:12:04;;;;;;;4.77;3.63;;;19.90;99.90;;;;;;5050549;28;20262;-67
2023/07/09 03:14:29;;;;;;;9.40;3.97;;;19.80;99.90;;;;;;5050479;28;20217;-69
2023/07/09 03:16:55;;;;;;;5.67;3.90;;;19.80;99.90;;;;;;5050466;28;20506;-69
2023/07/09 03:19:22;;;;;;;13.57;3.40;;;19.80;99.90;;;;;;5049004;28;20184;-69
2023/07/09 03:21:47;;;;;;;6.30;3.80;;;19.70;99.90;;;;;;5050296;28;20449;-69
2023/07/09 03:24:18;;;;;;;13.00;4.77;;;19.70;99.90;;;;;;5048709;28;20788;-68
2023/07/09 03:26:44;;;;;;;6.83;3.57;;;19.60;99.90;;;;;;5048789;28;20196;-68
2023/07/09 03:29:09;;;;;;;5.90;4.13;;;19.60;99.90;;;;;;5050301;28;20453;-68
2023/07/09 03:31:35;;;;;;;9.07;3.83;;;19.60;99.90;;;;;;5050063;28;20449;-69
2023/07/09 03:34:01;;;;;;;12.47;4.90;;;19.50;99.90;;;;;;5048784;28;20719;-69
2023/07/09 03:36:27;;;;;;;12.03;4.27;;;19.60;99.90;;;;;;5050127;28;20292;-69
2023/07/09 03:38:52;;;;;;;8.00;4.50;;;19.60;99.90;;;;;;5050125;28;20282;-69
2023/07/09 03:41:18;;;;;;;6.20;4.17;;;19.60;99.90;;;;;;5048860;28;20694;-68
2023/07/09 03:43:43;;;;;;;7.93;4.33;;;19.50;99.90;;;;;;5050017;28;20317;-68
2023/07/09 03:46:09;;;;;;;6.37;4.23;;;19.50;99.90;;;;;;5049856;28;20220;-68
2023/07/09 03:48:35;;;;;;;6.00;3.90;;;19.50;99.90;;;;;;5049911;28;20665;-68
2023/07/09 03:51:00;;;;;;;8.77;4.70;;;19.50;99.90;;;;;;5048598;28;20222;-69
2023/07/09 03:53:26;;;;;;;10.00;4.10;;;19.50;99.90;;;;;;5050091;28;20192;-68
2023/07/09 03:55:54;;;;;;;5.00;3.93;;;19.50;99.90;;;;;;5049891;28;20211;-68
2023/07/09 03:58:19;;;;;;;5.43;3.60;;;19.50;99.90;;;;;;5050083;28;20183;-68
2023/07/09 04:00:45;;;;;;;5.40;3.90;;;19.40;99.90;;;;;;5049663;28;20492;-68
2023/07/09 04:03:11;;;;;;;10.57;4.50;;;19.30;99.90;;;;;;5049651;28;20184;-69
2023/07/09 04:05:37;;;;;;;5.30;4.00;;;19.20;99.90;;;;;;5048107;28;20197;-68
2023/07/09 04:08:03;;;;;;;8.13;3.53;;;19.30;99.90;;;;;;5049810;28;20332;-68
2023/07/09 04:10:29;;;;;;;5.90;3.53;;;19.30;99.90;;;;;;5049404;28;20429;-68
2023/07/09 04:12:54;;;;;;;8.00;4.00;;;19.50;99.90;;;;;;5049465;28;20417;-68
2023/07/09 04:15:20;;;;;;;11.07;3.80;;;19.60;99.90;;;;;;5047865;28;20265;-67
2023/07/09 04:17:46;;;;;;;7.20;4.40;;;19.70;99.90;;;;;;5049306;28;20198;-68
2023/07/09 04:20:13;;;;;;;8.00;4.33;;;19.80;99.90;;;;;;5049522;28;20219;-68
2023/07/09 04:22:39;;;;;;;10.83;4.07;;;19.90;99.90;;;;;;5047856;28;20209;-68
2023/07/09 04:25:09;;;;;;;6.43;3.60;;;19.90;99.90;;;;;;5049248;28;20437;-67
2023/07/09 04:27:36;;;;;;;10.03;3.77;;;20.00;99.90;;;;;;5047801;28;20430;-68
2023/07/09 04:30:02;;;;;;;7.07;3.80;;;20.10;99.90;;;;;;5048539;28;20442;-68
2023/07/09 04:32:28;;;;;;;7.00;3.90;;;20.20;99.90;;;;;;5047754;28;20795;-68
2023/07/09 04:34:54;;;;;;;8.23;3.60;;;20.20;99.90;;;;;;5049274;28;20481;-69
2023/07/09 04:37:20;;;;;;;9.23;3.67;;;20.30;99.90;;;;;;5047988;28;20181;-68
2023/07/09 04:39:47;;;;;;;7.57;4.27;;;20.30;99.90;;;;;;5047640;28;20426;-68
2023/07/09 04:42:14;;;;;;;6.13;3.83;;;20.30;99.90;;;;;;5049004;28;20346;-68
2023/07/09 04:44:41;;;;;;;5.47;4.20;;;20.30;99.90;;;;;;5047715;28;20819;-68
2023/07/09 04:47:07;;;;;;;7.30;4.20;;;20.30;99.90;;;;;;5047712;28;20421;-70
2023/07/09 04:49:33;;;;;;;5.50;3.60;;;20.40;99.90;;;;;;5047775;28;20429;-68
2023/07/09 04:51:59;;;;;;;8.63;4.17;;;20.50;99.90;;;;;;5049412;28;21070;-69
2023/07/09 04:54:25;;;;;;;5.43;4.40;;;20.60;99.90;;;;;;5049078;28;20207;-69
2023/07/09 04:56:50;;;;;;;6.30;4.43;;;20.70;99.90;;;;;;5049205;28;20425;-68
2023/07/09 04:59:16;;;;;;;20.13;4.60;;;20.70;99.90;;;;;;5047972;28;20794;-68
2023/07/09 05:01:42;;;;;;;7.00;3.73;;;20.80;99.90;;;;;;5049961;28;20865;-69
2023/07/09 05:04:07;;;;;;;7.60;3.97;;;20.80;99.90;;;;;;5049798;28;20198;-69
2023/07/09 05:06:34;;;;;;;14.10;4.70;;;20.90;99.90;;;;;;5049831;28;20191;-68
2023/07/09 05:08:59;;;;;;;6.33;4.07;;;21.10;99.90;;;;;;5049209;28;20238;-69
2023/07/09 05:11:25;;;;;;;6.77;4.27;;;21.20;99.90;;;;;;5049250;28;20454;-69
2023/07/09 05:13:51;;;;;;;6.10;3.93;;;21.20;99.90;;;;;;5049461;28;20193;-69
2023/07/09 05:16:16;;;;;;;7.00;4.30;;;21.30;99.90;;;;;;5047851;28;20223;-69
2023/07/09 05:18:42;;;;;;;5.37;4.40;;;21.30;99.90;;;;;;5049253;28;20246;-69
2023/07/09 05:21:08;;;;;;;6.33;4.50;;;21.30;99.90;;;;;;5048809;28;20207;-69
2023/07/09 05:23:34;;;;;;;6.30;4.80;;;21.30;99.90;;;;;;5048928;28;20939;-69
2023/07/09 05:26:01;;;;;;;5.20;4.13;;;21.20;99.90;;;;;;5047698;28;20237;-68
2023/07/09 05:28:28;;;;;;;6.10;4.43;;;21.30;99.90;;;;;;5048763;28;20226;-68
2023/07/09 05:30:53;;;;;;;9.53;4.70;;;21.50;99.90;;;;;;5048921;28;20439;-69
2023/07/09 05:33:19;;;;;;;8.97;4.20;;;21.50;99.90;;;;;;5048650;28;20493;-69
2023/07/09 05:35:45;;;;;;;9.67;4.50;;;21.60;99.90;;;;;;5047234;28;20219;-69
2023/07/09 05:38:12;;;;;;;5.80;4.07;;;21.60;99.90;;;;;;5048400;28;20238;-68
2023/07/09 05:40:38;;;;;;;5.33;4.13;;;21.70;99.90;;;;;;5048395;28;20965;-69
2023/07/09 05:43:04;;;;;;;6.30;3.60;;;21.80;99.90;;;;;;5050637;28;20458;-69
2023/07/09 05:45:31;;;;;;;6.57;4.10;;;21.90;99.90;;;;;;5050947;28;20193;-69
2023/07/09 05:47:58;;;;;;;7.20;3.83;;;22.00;99.90;;;;;;5052353;28;20565;-69
2023/07/09 05:50:24;;;;;;;9.30;4.10;;;22.10;99.90;;;;;;5052251;28;20925;-68
2023/07/09 05:52:50;;;;;;;8.70;4.87;;;22.20;99.90;;;;;;5051058;28;20425;-69
2023/07/09 05:55:16;;;;;;;5.50;3.60;;;22.30;99.90;;;;;;5052243;28;20524;-69
2023/07/09 05:57:41;;;;;;;8.00;4.30;;;22.40;99.90;;;;;;5050835;28;20305;-68
2023/07/09 06:00:08;;;;;;;8.20;4.20;;;22.50;99.90;;;;;;5052355;28;20676;-69
2023/07/09 06:02:35;;;;;;;5.03;3.70;;;22.70;99.90;;;;;;5052112;28;20590;-68
2023/07/09 06:05:00;;;;;;;8.33;4.00;;;22.80;99.90;;;;;;5050491;28;20437;-72
2023/07/09 06:07:26;;;;;;;9.17;4.50;;;22.90;99.90;;;;;;5050590;28;20437;-72
2023/07/09 06:09:52;;;;;;;6.90;4.13;;;22.90;99.90;;;;;;5034101;28;20191;-70
2023/07/09 06:12:19;;;;;;;5.80;4.47;;;23.00;99.90;;;;;;5051724;28;20638;-69
2023/07/09 06:14:45;;;;;;;10.27;4.10;;;23.10;99.90;;;;;;5051542;28;20994;-69
2023/07/09 06:17:11;;;;;;;7.70;4.00;;;23.30;99.90;;;;;;5051847;28;20926;-68
2023/07/09 06:19:37;;;;;;;8.30;4.40;;;23.30;99.90;;;;;;5051715;28;20454;-68
2023/07/09 06:22:03;;;;;;;9.90;4.40;;;23.40;99.90;;;;;;5051796;28;20200;-66
2023/07/09 06:24:29;;;;;;;5.70;4.77;;;23.70;99.90;;;;;;5051553;28;20486;-68
2023/07/09 06:26:54;;;;;;;10.70;4.40;;;23.70;99.90;;;;;;5050300;28;20472;-68
2023/07/09 06:29:20;;;;;;;4.90;4.00;;;23.90;99.90;;;;;;5051617;28;20215;-67
2023/07/09 06:31:45;;;;;;;5.90;4.17;;;24.10;99.90;;;;;;5051435;28;20221;-68
2023/07/09 06:34:11;;;;;;;8.17;4.30;;;24.00;99.90;;;;;;5051481;28;20264;-68
2023/07/09 06:36:36;;;;;;;5.87;4.40;;;24.10;99.90;;;;;;5050053;28;20278;-67
2023/07/09 06:39:02;;;;;;;6.90;4.73;;;24.20;99.90;;;;;;5051560;28;20191;-65
2023/07/09 06:41:28;;;;;;;5.27;3.90;;;24.30;99.90;;;;;;5051309;28;20206;-66
2023/07/09 06:43:54;;;;;;;6.73;4.33;;;24.50;99.90;;;;;;5051533;28;20524;-66
2023/07/09 06:46:21;;;;;;;4.90;3.77;;;24.60;99.90;;;;;;5049797;28;20451;-66
2023/07/09 06:48:46;;;;;;;5.23;3.97;;;24.50;99.90;;;;;;5051134;28;20952;-67
2023/07/09 06:51:12;;;;;;;9.80;4.50;;;24.70;99.90;;;;;;5033013;28;20437;-65
2023/07/09 06:53:39;;;;;;;6.37;4.00;;;24.70;99.90;;;;;;5050390;28;20559;-67
2023/07/09 06:56:05;;;;;;;7.23;4.60;;;24.80;99.90;;;;;;5050933;28;20183;-67
2023/07/09 06:58:33;;;;;;;5.20;3.90;;;25.00;99.90;;;;;;5050832;28;20801;-67
2023/07/09 07:01:03;;;;;;;6.27;3.70;;;25.20;99.90;;;;;;5049702;28;20224;-67
2023/07/09 07:03:29;;;;;;;5.40;4.20;;;25.40;99.90;;;;;;5050863;28;20438;-66
2023/07/09 07:05:57;;;;;;;7.23;4.13;;;25.50;99.90;;;;;;5050744;28;20773;-66
2023/07/09 07:08:24;;;;;;;6.97;4.00;;;25.50;99.90;;;;;;5050840;28;20991;-66
2023/07/09 07:10:56;;;;;;;5.80;4.07;;;25.60;99.90;;;;;;5050626;28;20498;-65
2023/07/09 07:13:21;;;;;;;9.00;4.07;;;25.50;99.90;;;;;;5050731;28;20934;-66
2023/07/09 07:15:50;;;;;;;6.90;4.40;;;25.60;99.90;;;;;;5050548;28;20504;-66
2023/07/09 07:18:15;;;;;;;8.83;4.03;;;25.70;99.90;;;;;;5050769;28;20238;-67
2023/07/09 07:20:41;;;;;;;8.07;3.97;;;25.70;99.90;;;;;;5050621;28;22154;-67
2023/07/09 07:23:06;;;;;;;4.10;3.53;;;25.60;99.90;;;;;;5048911;28;20191;-66
2023/07/09 07:25:33;;;;;;;7.83;3.10;;;25.70;99.90;;;;;;5047660;28;20614;-67
2023/07/09 07:27:58;;;;;;;6.33;4.20;;;25.70;99.90;;;;;;5049033;28;20187;-67
2023/07/09 07:30:24;;;;;;;6.73;4.17;;;25.90;99.90;;;;;;5048783;28;20455;-67
2023/07/09 07:32:50;;;;;;;5.87;3.20;;;26.00;99.90;;;;;;5047479;28;20195;-66
2023/07/09 07:35:16;;;;;;;6.80;3.73;;;26.00;99.90;;;;;;5048909;28;20473;-67
2023/07/09 07:37:42;;;;;;;5.17;3.90;;;26.10;99.90;;;;;;5049006;28;20177;-67
2023/07/09 07:40:09;;;;;;;4.60;3.70;;;26.20;99.90;;;;;;5049118;28;20425;-67
2023/07/09 07:42:35;;;;;;;5.10;4.10;;;26.30;99.90;;;;;;5048828;28;20225;-66
2023/07/09 07:45:01;;;;;;;11.30;5.23;;;26.40;99.90;;;;;;5048590;28;20462;-66
2023/07/09 07:47:27;;;;;;;9.03;4.47;;;26.40;99.90;;;;;;5048718;28;20529;-66
2023/07/09 07:49:53;;;;;;;9.43;4.00;;;26.40;99.90;;;;;;5048757;28;20620;-66
2023/07/09 07:52:19;;;;;;;8.30;4.27;;;26.40;99.90;;;;;;5048738;28;20207;-66
2023/07/09 07:54:45;;;;;;;6.53;4.37;;;26.40;99.90;;;;;;5048505;28;20815;-65
2023/07/09 07:57:11;;;;;;;5.57;4.17;;;26.40;99.90;;;;;;5048475;28;20425;-66
2023/07/09 07:59:37;;;;;;;6.80;4.80;;;26.40;99.90;;;;;;5048733;28;20183;-66
2023/07/09 08:02:05;;;;;;;8.47;4.37;;;26.40;99.90;;;;;;5048477;28;20442;-66
2023/07/09 08:04:31;;;;;;;8.23;4.40;;;26.50;99.90;;;;;;5047333;28;20486;-66
2023/07/09 08:06:58;;;;;;;8.47;4.77;;;26.60;99.90;;;;;;5048335;28;20914;-66
2023/07/09 08:09:24;;;;;;;5.30;3.90;;;26.60;99.90;;;;;;5048032;28;20285;-66
2023/07/09 08:11:49;;;;;;;5.50;4.57;;;26.70;99.90;;;;;;5048007;28;20441;-66
2023/07/09 08:14:15;;;;;;;7.40;4.10;;;26.80;99.90;;;;;;5046735;28;20208;-68
2023/07/09 08:16:41;;;;;;;8.70;4.50;;;26.90;99.90;;;;;;5046603;28;20184;-67
2023/07/09 08:19:06;;;;;;;7.90;4.60;;;27.00;99.90;;;;;;5047780;28;20187;-67
2023/07/09 08:21:32;;;;;;;6.63;4.00;;;27.10;99.90;;;;;;5047856;28;20219;-68
2023/07/09 08:23:58;;;;;;;6.33;4.23;;;27.30;99.90;;;;;;5046436;28;20188;-66
2023/07/09 08:26:26;;;;;;;9.37;4.57;;;27.40;99.90;;;;;;5048075;28;20651;-65
2023/07/09 08:28:52;;;;;;;5.80;4.20;;;27.40;99.90;;;;;;5047762;28;20191;-66
2023/07/09 08:31:17;;;;;;;6.17;3.83;;;27.50;99.90;;;;;;5047744;28;20441;-66
2023/07/09 08:33:43;;;;;;;6.43;3.90;;;27.60;99.90;;;;;;5046276;28;20230;-66
2023/07/09 08:36:09;;;;;;;4.40;3.77;;;27.70;99.90;;;;;;5047798;28;20441;-66
2023/07/09 08:38:34;;;;;;;6.93;3.97;;;27.80;99.90;;;;;;5047912;28;20697;-67
2023/07/09 08:41:07;;;;;;;5.13;4.30;;;27.90;99.90;;;;;;5047619;28;20733;-66
2023/07/09 08:43:48;;;;;;;10.80;4.27;;;28.10;99.90;;;;;;5047656;28;20221;-66
2023/07/09 08:46:19;;;;;;;7.40;3.90;;;28.20;99.90;;;;;;5047706;28;21005;-68
2023/07/09 08:48:48;;;;;;;4.33;3.57;;;28.30;99.90;;;;;;5047682;28;20468;-66
2023/07/09 08:51:38;;;;;;;7.17;3.90;;;28.40;99.90;;;;;;5047956;28;20928;-66
2023/07/09 08:54:09;;;;;;;5.93;3.77;;;28.60;99.90;;;;;;5048187;28;21242;-67
2023/07/09 08:56:34;;;;;;;4.40;4.00;;;28.70;99.90;;;;;;5048081;28;20421;-67
2023/07/09 08:59:02;;;;;;;8.23;4.90;;;28.80;99.90;;;;;;5046555;28;20410;-68
2023/07/09 09:01:39;;;;;;;13.30;4.97;;;28.90;99.90;;;;;;5047717;28;20282;-68
2023/07/09 09:04:18;;;;;;;11.50;4.30;;;29.10;99.90;;;;;;5048062;28;20422;-66
2023/07/09 09:06:50;;;;;;;6.77;4.10;;;29.30;99.90;;;;;;5046473;28;20423;-66
2023/07/09 09:09:22;;;;;;;8.97;4.10;;;29.40;99.90;;;;;;5047717;28;20444;-66
2023/07/09 09:12:17;;;;;;;6.23;3.90;;;29.60;99.90;;;;;;5047385;28;21050;-66
2023/07/09 09:14:46;;;;;;;13.10;4.27;;;29.70;99.90;;;;;;5047272;28;20470;-67
2023/07/09 09:17:16;;;;;;;5.53;3.67;;;29.90;99.60;;;;;;5047258;28;20421;-66
2023/07/09 09:19:54;;;;;;;8.30;4.13;;;30.00;99.50;;;;;;5047556;28;20914;-66
2023/07/09 09:22:40;;;;;;;9.67;4.53;;;30.20;99.90;;;;;;5046220;28;20465;-66
2023/07/09 09:25:28;;;;;;;6.20;4.40;;;30.30;99.80;;;;;;5045886;28;20425;-66
2023/07/09 09:27:54;;;;;;;11.50;4.63;;;30.50;99.10;;;;;;5047655;28;20417;-66
2023/07/09 09:30:24;;;;;;;4.87;3.53;;;30.70;96.50;;;;;;5047453;28;20450;-67
2023/07/09 09:32:58;;;;;;;8.80;4.53;;;30.80;96.00;;;;;;5047705;28;20468;-65
2023/07/09 09:35:33;;;;;;;5.80;3.70;;;31.00;96.80;;;;;;5047728;28;20455;-66
2023/07/09 09:38:00;;;;;;;5.23;3.73;;;31.10;96.10;;;;;;5047783;28;20508;-67
2023/07/09 09:40:32;;;;;;;7.57;3.77;;;31.20;95.70;;;;;;5047468;28;20411;-68
2023/07/09 09:43:00;;;;;;;5.20;3.30;;;31.30;95.20;;;;;;5046610;28;20773;-67
2023/07/09 09:45:34;;;;;;;7.07;4.10;;;31.40;92.80;;;;;;5047750;28;20436;-67
2023/07/09 09:48:01;;;;;;;7.17;4.30;;;31.60;94.00;;;;;;5047461;28;20997;-67
2023/07/09 09:50:32;;;;;;;7.07;3.93;;;31.70;93.80;;;;;;5047359;28;20432;-66
2023/07/09 09:53:01;;;;;;;6.83;3.47;;;31.90;92.20;;;;;;5047405;28;20933;-67
2023/07/09 09:55:32;;;;;;;5.80;4.00;;;31.90;92.10;;;;;;5047233;28;20492;-67
2023/07/09 09:57:58;;;;;;;4.60;3.70;;;32.20;92.00;;;;;;5045616;28;20422;-67
2023/07/09 10:00:26;;;;;;;4.27;3.80;;;32.30;91.70;;;;;;5046974;28;20429;-67
2023/07/09 10:03:06;;;;;;;5.17;3.70;;;32.30;89.10;;;;;;5047325;28;20422;-68
2023/07/09 10:05:48;;;;;;;5.43;3.90;;;32.30;88.60;;;;;;5045481;28;20418;-67
2023/07/09 10:08:39;;;;;;;5.47;3.80;;;32.50;90.60;;;;;;5047251;28;20422;-66
2023/07/09 10:11:20;;;;;;;9.07;5.40;;;32.70;90.60;;;;;;5045376;28;20880;-67
2023/07/09 10:13:48;;;;;;;6.80;3.93;;;32.90;88.60;;;;;;5047063;28;20422;-67
2023/07/09 10:16:29;;;;;;;6.07;5.00;;;32.90;85.60;;;;;;5046943;28;20429;-68
2023/07/09 10:18:55;;;;;;;4.20;3.80;;;32.90;82.90;;;;;;5046482;28;20434;-67
2023/07/09 10:21:33;;;;;;;4.33;3.80;;;33.00;83.70;;;;;;5046345;28;20461;-66
2023/07/09 10:24:18;;;;;;;4.70;3.67;;;33.10;83.50;;;;;;5046451;28;20188;-67
2023/07/09 10:26:53;;;;;;;5.17;3.70;;;33.20;80.10;;;;;;5046480;28;20422;-67
2023/07/09 10:29:54;;;;;;;5.00;3.77;;;33.30;79.50;;;;;;5050034;28;20442;-66
2023/07/09 10:32:20;;;;;;;6.63;4.50;;;33.40;79.00;;;;;;5050017;28;20429;-67
2023/07/09 10:35:16;;;;;;;5.00;4.13;;;33.40;80.80;;;;;;5048468;28;21111;-67
2023/07/09 10:38:06;;;;;;;14.93;12.87;;;33.50;81.10;;;;;;5050077;28;20176;-68
2023/07/09 10:40:45;;;;;;;6.33;5.20;;;33.50;79.80;;;;;;5049872;28;20414;-67
2023/07/09 10:43:19;;;;;;;6.00;4.63;;;33.40;79.10;;;;;;5050298;28;20425;-66
2023/07/09 10:45:55;;;;;;;6.30;4.17;;;33.50;80.00;;;;;;5049987;28;20427;-66
2023/07/09 10:48:41;;;;;;;5.57;3.57;;;33.60;83.00;;;;;;5049500;28;20768;-67
2023/07/09 10:51:26;;;;;;;7.80;4.50;;;33.80;82.00;;;;;;5049524;28;20441;-67
2023/07/09 10:54:12;;;;;;;8.53;4.30;;;33.90;81.30;;;;;;5049794;28;20422;-67
2023/07/09 10:56:39;;;;;;;4.83;3.43;;;33.90;79.70;;;;;;5049526;28;20777;-67
2023/07/09 10:59:29;;;;;;;6.10;4.00;;;34.00;80.60;;;;;;5049730;28;20854;-66
2023/07/09 11:02:18;;;;;;;6.50;4.63;;;33.90;79.00;;;;;;5049245;28;20491;-67
2023/07/09 11:04:54;;;;;;;6.13;3.83;;;34.00;78.10;;;;;;5050041;28;20426;-67
2023/07/09 11:07:27;;;;;;;6.23;3.70;;;33.90;77.70;;;;;;5048050;28;20926;-67
2023/07/09 11:09:56;;;;;;;4.43;3.53;;;33.60;78.80;;;;;;5049763;28;20418;-68
2023/07/09 11:12:41;;;;;;;5.57;4.07;;;33.70;79.00;;;;;;5049380;28;20474;-67
2023/07/09 11:15:18;;;;;;;7.20;3.47;;;33.90;80.00;;;;;;5047926;28;20458;-67
2023/07/09 11:17:46;;;;;;;7.40;4.00;;;34.00;77.70;;;;;;5049304;28;21034;-66
2023/07/09 11:20:21;;;;;;;4.80;3.73;;;34.10;76.00;;;;;;5049191;28;20456;-68
2023/07/09 11:23:00;;;;;;;5.87;4.13;;;34.20;76.30;;;;;;5049206;28;20542;-68
2023/07/09 11:25:30;;;;;;;5.00;4.03;;;34.20;75.80;;;;;;5049038;28;20406;-66
2023/07/09 11:28:06;;;;;;;9.97;3.93;;;34.20;77.00;;;;;;5049023;28;20838;-67
2023/07/09 11:30:33;;;;;;;6.20;3.90;;;34.20;78.60;;;;;;5048741;28;20979;-68
2023/07/09 11:33:02;;;;;;;7.10;4.23;;;34.40;77.70;;;;;;5049086;28;20413;-67
2023/07/09 11:35:44;;;;;;;6.73;4.50;;;34.50;77.10;;;;;;5048911;28;20454;-67
2023/07/09 11:38:21;;;;;;;4.73;4.10;;;34.60;76.20;;;;;;5048773;28;20444;-67
2023/07/09 11:40:49;;;;;;;9.47;4.53;;;34.70;72.90;;;;;;5048611;28;20434;-67
2023/07/09 11:43:35;;;;;;;5.43;4.23;;;34.70;74.30;;;;;;5048624;28;20415;-67
2023/07/09 11:46:24;;;;;;;5.73;4.37;;;34.70;72.70;;;;;;5048736;28;20418;-67
2023/07/09 11:48:52;;;;;;;4.90;3.93;;;34.70;72.60;;;;;;5048954;28;20906;-68
2023/07/09 11:51:33;;;;;;;6.00;4.50;;;34.70;73.70;;;;;;5048625;28;20446;-68
2023/07/09 11:54:00;;;;;;;3.83;3.50;;;34.80;73.20;;;;;;5048983;28;20962;-67
2023/07/09 11:56:26;;;;;;;11.23;5.40;;;34.80;75.70;;;;;;5049105;28;20993;-68
2023/07/09 11:58:55;;;;;;;6.77;4.60;;;34.80;75.00;;;;;;5048579;28;20418;-66
2023/07/09 12:01:34;;;;;;;6.47;4.03;;;34.80;73.20;;;;;;5048524;28;20290;-66
2023/07/09 12:04:00;;;;;;;8.50;3.70;;;34.80;75.40;;;;;;5048790;28;20414;-66
2023/07/09 12:06:31;;;;;;;5.37;4.23;;;35.00;73.70;;;;;;5047196;28;20922;-67
2023/07/09 12:08:57;;;;;;;6.40;4.57;;;35.00;70.20;;;;;;5048852;28;20468;-68
2023/07/09 12:11:28;;;;;;;9.13;3.87;;;34.80;68.60;;;;;;5048604;28;20442;-67
2023/07/09 12:14:00;;;;;;;7.50;4.40;;;34.80;69.00;;;;;;5048634;28;20422;-69
2023/07/09 12:16:29;;;;;;;5.63;4.27;;;35.00;68.00;;;;;;5048692;28;20461;-67
2023/07/09 12:18:58;;;;;;;7.37;4.93;;;35.10;69.10;;;;;;5049142;28;20471;-67
2023/07/09 12:21:25;;;;;;;5.73;4.00;;;35.10;69.20;;;;;;5049403;28;20446;-66
2023/07/09 12:23:51;;;;;;;6.37;4.30;;;35.00;68.90;;;;;;5048812;28;20446;-68
2023/07/09 12:26:19;;;;;;;4.50;3.87;;;35.00;68.80;;;;;;5049283;28;20426;-66
2023/07/09 12:28:55;;;;;;;7.77;4.03;;;34.90;66.70;;;;;;5048916;28;20671;-67
2023/07/09 12:31:27;;;;;;;6.17;4.77;;;35.00;66.90;;;;;;5047618;28;20441;-66
2023/07/09 12:33:54;;;;;;;5.80;3.77;;;34.80;68.50;;;;;;5049394;28;20430;-67
2023/07/09 12:36:20;;;;;;;6.43;3.77;;;34.70;69.10;;;;;;5048964;28;20418;-67
2023/07/09 12:38:49;;;;;;;6.20;4.30;;;34.70;67.40;;;;;;5048839;28;20414;-66
2023/07/09 12:41:38;;;;;;;8.80;4.50;;;34.80;68.30;;;;;;5048674;28;21036;-67
2023/07/09 12:44:04;;;;;;;5.43;4.10;;;34.90;70.60;;;;;;5049079;28;20406;-66
2023/07/09 12:46:30;;;;;;;10.10;3.90;;;34.90;68.70;;;;;;5047442;28;20800;-66
2023/07/09 12:48:56;;;;;;;8.20;4.43;;;35.00;68.50;;;;;;5048703;28;20266;-67
2023/07/09 12:51:24;;;;;;;5.20;4.30;;;35.10;66.60;;;;;;5048183;28;20539;-68
2023/07/09 12:54:19;;;;;;;6.60;4.20;;;35.10;66.70;;;;;;5048694;28;20418;-66